createdAt,value
2023-02-12T00:01:10.307Z,94.23
2023-02-12T00:03:39.327Z,99.30
2023-02-12T00:06:10.010Z,98.40
2023-02-12T00:08:39.677Z,95.17
2023-02-12T00:11:12.856Z,96.63
2023-02-12T00:13:41.226Z,95.63
2023-02-12T00:16:11.612Z,94.73
2023-02-12T00:18:40.084Z,91.47
2023-02-12T00:21:09.889Z,93.87
2023-02-12T00:23:39.339Z,91.90
2023-02-12T00:26:08.221Z,90.63
2023-02-12T00:28:36.961Z,88.37
2023-02-12T00:31:09.332Z,91.80
2023-02-12T00:33:37.979Z,90.20
2023-02-12T00:36:06.752Z,91.97
2023-02-12T00:38:36.590Z,85.73
2023-02-12T00:41:05.262Z,90.13
2023-02-12T00:43:33.388Z,85.57
2023-02-12T00:46:02.650Z,89.20
2023-02-12T00:48:30.835Z,87.57
2023-02-12T00:50:58.969Z,87.17
2023-02-12T00:53:29.125Z,87.77
2023-02-12T00:55:58.704Z,84.93
2023-02-12T00:58:27.159Z,82.63
2023-02-12T01:00:56.028Z,83.80
2023-02-12T01:03:25.076Z,80.10
2023-02-12T01:05:53.951Z,83.20
2023-02-12T01:08:22.593Z,82.37
2023-02-12T01:10:59.738Z,81.80
2023-02-12T01:13:30.658Z,80.07
2023-02-12T01:16:11.006Z,77.10
2023-02-12T01:18:40.086Z,77.47
2023-02-12T01:21:13.117Z,77.60
2023-02-12T01:23:41.482Z,74.33
2023-02-12T01:26:12.246Z,76.67
2023-02-12T01:28:40.792Z,73.10
2023-02-12T01:31:12.062Z,69.37
2023-02-12T01:33:40.319Z,68.17
2023-02-12T01:36:09.661Z,68.03
2023-02-12T01:38:37.806Z,65.30
2023-02-12T01:41:07.157Z,65.50
2023-02-12T01:43:38.099Z,64.80
2023-02-12T01:46:07.106Z,64.60
2023-02-12T01:48:38.182Z,62.40
2023-02-12T01:51:09.495Z,58.47
2023-02-12T01:53:43.072Z,60.43
2023-02-12T01:56:11.535Z,63.00
2023-02-12T01:58:44.078Z,65.57
2023-02-12T02:01:16.824Z,68.13
2023-02-12T02:03:48.668Z,68.50
2023-02-12T02:06:22.410Z,67.57
2023-02-12T02:08:51.200Z,66.33
2023-02-12T02:11:36.580Z,65.47
2023-02-12T02:14:25.956Z,64.17
2023-02-12T02:17:02.708Z,63.07
2023-02-12T02:19:45.525Z,62.50
2023-02-12T02:22:27.912Z,62.67
2023-02-12T02:25:23.141Z,61.07
2023-02-12T02:28:03.624Z,62.17
2023-02-12T02:30:45.568Z,62.73
2023-02-12T02:33:34.452Z,65.00
2023-02-12T02:36:15.635Z,67.37
2023-02-12T02:38:49.683Z,64.67
2023-02-12T02:41:23.890Z,68.20
2023-02-12T02:43:53.663Z,68.03
2023-02-12T02:46:29.094Z,61.70
2023-02-12T02:49:02.225Z,62.57
2023-02-12T02:51:34.668Z,59.30
2023-02-12T02:54:08.810Z,58.73
2023-02-12T02:56:40.434Z,63.20
2023-02-12T02:59:12.872Z,60.70
2023-02-12T03:01:45.328Z,56.07
2023-02-12T03:04:20.853Z,56.23
2023-02-12T03:06:55.818Z,60.17
2023-02-12T03:09:28.233Z,56.03
2023-02-12T03:12:01.470Z,58.57
2023-02-12T03:14:33.546Z,56.23
2023-02-12T03:17:08.029Z,55.13
2023-02-12T03:19:41.121Z,57.07
2023-02-12T03:22:13.023Z,54.87
2023-02-12T03:24:45.918Z,55.83
2023-02-12T03:27:19.367Z,56.60
2023-02-12T03:29:48.015Z,55.07
2023-02-12T03:32:32.340Z,51.67
2023-02-12T03:35:11.099Z,50.23
2023-02-12T03:37:45.030Z,49.90
2023-02-12T03:40:19.868Z,54.60
2023-02-12T03:42:56.621Z,51.23
2023-02-12T03:45:35.424Z,53.77
2023-02-12T03:48:12.562Z,50.87
2023-02-12T03:50:48.039Z,53.20
2023-02-12T03:53:16.286Z,52.10
2023-02-12T03:55:49.183Z,47.13
2023-02-12T03:58:23.475Z,53.03
2023-02-12T04:00:52.590Z,51.50
2023-02-12T04:03:22.514Z,51.10
2023-02-12T04:05:50.615Z,51.37
2023-02-12T04:08:18.773Z,50.07
2023-02-12T04:10:57.766Z,45.30
2023-02-12T04:13:34.592Z,46.13
2023-02-12T04:16:13.359Z,46.60
2023-02-12T04:18:46.035Z,43.80
2023-02-12T04:21:26.923Z,42.63
2023-02-12T04:24:07.418Z,43.03
2023-02-12T04:26:43.055Z,44.70
2023-02-12T04:29:20.538Z,45.53
2023-02-12T04:31:52.152Z,41.93
2023-02-12T04:34:29.314Z,40.93
2023-02-12T04:37:00.731Z,40.00
2023-02-12T04:39:32.490Z,36.77
2023-02-12T04:42:01.806Z,35.20
2023-02-12T04:44:32.638Z,32.77
2023-02-12T04:47:01.377Z,31.40
2023-02-12T04:49:31.140Z,31.63
2023-02-12T04:51:59.455Z,31.57
2023-02-12T04:54:27.507Z,28.57
2023-02-12T04:56:55.684Z,27.60
2023-02-12T04:59:23.770Z,28.30
2023-02-12T05:01:52.195Z,27.60
2023-02-12T05:04:21.010Z,27.37
2023-02-12T05:06:50.502Z,27.57
2023-02-12T05:09:20.340Z,28.40
2023-02-12T05:11:48.509Z,28.00
2023-02-12T05:14:16.941Z,28.00
2023-02-12T05:16:45.097Z,28.10
2023-02-12T05:19:13.274Z,26.67
2023-02-12T05:21:41.580Z,27.83
2023-02-12T05:24:11.212Z,27.67
2023-02-12T05:26:39.327Z,28.83
2023-02-12T05:29:07.406Z,27.63
2023-02-12T05:31:35.884Z,27.67
2023-02-12T05:34:04.084Z,27.60
2023-02-12T05:36:32.203Z,28.07
2023-02-12T05:39:01.270Z,27.90
2023-02-12T05:41:34.966Z,27.23
2023-02-12T05:44:03.888Z,27.10
2023-02-12T05:46:32.844Z,26.90
2023-02-12T05:49:01.142Z,27.37
2023-02-12T05:51:32.269Z,27.67
2023-02-12T05:54:03.729Z,27.57
2023-02-12T05:56:34.820Z,28.70
2023-02-12T05:59:05.300Z,28.17
2023-02-12T06:01:35.192Z,29.33
2023-02-12T06:04:04.348Z,28.57
2023-02-12T06:06:33.686Z,29.17
2023-02-12T06:09:01.919Z,29.50
2023-02-12T06:11:30.128Z,30.03
2023-02-12T06:13:59.660Z,30.23
2023-02-12T06:16:29.016Z,29.80
2023-02-12T06:18:58.574Z,29.77
2023-02-12T06:21:27.809Z,30.17
2023-02-12T06:23:56.277Z,28.83
2023-02-12T06:26:25.644Z,29.67
2023-02-12T06:28:54.034Z,28.63
2023-02-12T06:31:25.724Z,27.70
2023-02-12T06:33:55.390Z,27.77
2023-02-12T06:36:23.798Z,27.17
2023-02-12T06:38:52.376Z,27.07
2023-02-12T06:41:20.995Z,26.47
2023-02-12T06:43:49.711Z,25.63
2023-02-12T06:46:17.846Z,25.30
2023-02-12T06:48:47.446Z,25.10
2023-02-12T06:51:17.441Z,25.70
2023-02-12T06:53:46.438Z,26.80
2023-02-12T06:56:15.053Z,25.40
2023-02-12T06:58:45.109Z,25.07
2023-02-12T07:01:17.749Z,25.17
2023-02-12T07:03:50.160Z,24.27
2023-02-12T07:06:18.822Z,23.83
2023-02-12T07:08:47.271Z,23.00
2023-02-12T07:11:15.680Z,23.07
2023-02-12T07:13:44.976Z,22.40
2023-02-12T07:16:15.919Z,21.97
2023-02-12T07:18:45.159Z,22.33
2023-02-12T07:21:17.009Z,20.90
2023-02-12T07:23:50.872Z,20.10
2023-02-12T07:26:20.672Z,19.37
2023-02-12T07:28:49.270Z,19.80
2023-02-12T07:31:19.783Z,17.87
2023-02-12T07:33:48.611Z,16.00
2023-02-12T07:36:20.067Z,15.07
2023-02-12T07:38:48.858Z,14.43
2023-02-12T07:41:18.934Z,14.07
2023-02-12T07:43:49.374Z,14.10
2023-02-12T07:46:19.948Z,12.77
2023-02-12T07:48:48.902Z,11.20
2023-02-12T07:51:20.045Z,10.67
2023-02-12T07:53:49.016Z,9.17
2023-02-12T07:56:18.990Z,10.30
2023-02-12T07:58:48.361Z,9.97
2023-02-12T08:01:19.485Z,10.57
2023-02-12T08:03:48.901Z,10.00
2023-02-12T08:06:20.347Z,9.83
2023-02-12T08:08:48.969Z,8.97
2023-02-12T08:11:18.941Z,9.80
2023-02-12T08:13:47.558Z,11.07
2023-02-12T08:16:17.659Z,10.90
2023-02-12T08:18:46.045Z,8.90
2023-02-12T08:21:15.525Z,6.30
2023-02-12T08:23:46.153Z,6.70
2023-02-12T08:26:16.946Z,6.83
2023-02-12T08:28:47.314Z,8.27
2023-02-12T08:31:17.816Z,7.00
2023-02-12T08:33:46.553Z,6.90
2023-02-12T08:36:16.444Z,7.17
2023-02-12T08:38:47.254Z,7.20
2023-02-12T08:41:19.284Z,6.50
2023-02-12T08:43:49.316Z,6.60
2023-02-12T08:46:20.068Z,6.10
2023-02-12T08:48:48.725Z,6.57
2023-02-12T08:51:19.199Z,5.83
2023-02-12T08:53:50.200Z,5.53
2023-02-12T08:56:19.348Z,5.10
2023-02-12T08:58:47.861Z,5.47
2023-02-12T09:01:17.906Z,5.00
2023-02-12T09:03:47.367Z,5.97
2023-02-12T09:06:17.045Z,6.93
2023-02-12T09:08:45.785Z,6.67
2023-02-12T09:11:17.700Z,6.80
2023-02-12T09:13:47.384Z,5.93
2023-02-12T09:16:15.851Z,6.10
2023-02-12T09:18:45.274Z,6.63
2023-02-12T09:21:16.701Z,6.03
2023-02-12T09:23:45.614Z,7.30
2023-02-12T09:26:17.370Z,5.90
2023-02-12T09:28:45.581Z,5.33
2023-02-12T09:31:15.967Z,5.90
2023-02-12T09:33:44.314Z,6.00
2023-02-12T09:36:15.903Z,5.83
2023-02-12T09:38:48.231Z,6.57
2023-02-12T09:41:48.237Z,6.27
2023-02-12T09:44:22.031Z,6.50
2023-02-12T09:46:54.802Z,6.13
2023-02-12T09:49:39.452Z,6.13
2023-02-12T09:52:14.604Z,5.53
2023-02-12T09:54:45.545Z,6.00
2023-02-12T09:57:21.397Z,5.60
2023-02-12T09:59:55.533Z,6.03
2023-02-12T10:02:25.394Z,5.33
2023-02-12T10:05:01.239Z,5.73
2023-02-12T10:07:58.121Z,6.70
2023-02-12T10:10:40.427Z,5.90
2023-02-12T10:13:19.972Z,5.80
2023-02-12T10:15:54.367Z,5.97
2023-02-12T10:18:43.943Z,6.27
2023-02-12T10:21:28.600Z,6.00
2023-02-12T10:24:06.993Z,5.93
2023-02-12T10:26:41.825Z,5.40
2023-02-12T10:29:16.345Z,4.77
2023-02-12T10:31:48.223Z,5.63
2023-02-12T10:34:20.610Z,5.83
2023-02-12T10:36:50.578Z,5.47
2023-02-12T10:39:23.700Z,5.73
2023-02-12T10:41:59.803Z,7.20
2023-02-12T10:44:29.521Z,5.37
2023-02-12T10:46:57.651Z,5.63
2023-02-12T10:49:26.104Z,5.40
2023-02-12T10:52:02.189Z,5.23
2023-02-12T10:54:37.069Z,5.63
2023-02-12T10:57:13.661Z,5.73
2023-02-12T10:59:44.615Z,5.73
2023-02-12T11:02:25.315Z,5.70
2023-02-12T11:04:55.313Z,5.33
2023-02-12T11:07:24.669Z,4.90
2023-02-12T11:09:54.886Z,5.40
2023-02-12T11:12:33.550Z,5.33
2023-02-12T11:15:05.723Z,5.43
2023-02-12T11:17:37.870Z,5.73
2023-02-12T11:20:20.670Z,5.43
2023-02-12T11:22:57.300Z,6.20
2023-02-12T11:25:28.191Z,5.47
2023-02-12T11:28:15.182Z,4.70
2023-02-12T11:30:53.529Z,4.97
2023-02-12T11:33:30.833Z,4.97
2023-02-12T11:36:01.821Z,4.97
2023-02-12T11:38:36.172Z,5.80
2023-02-12T11:41:10.013Z,4.90
2023-02-12T11:43:40.172Z,5.33
2023-02-12T11:46:09.969Z,5.57
2023-02-12T11:48:40.914Z,5.60
2023-02-12T11:51:18.741Z,5.30
2023-02-12T11:53:51.241Z,6.03
2023-02-12T11:56:20.070Z,5.80
2023-02-12T11:58:49.128Z,5.13
2023-02-12T12:01:22.457Z,5.93
2023-02-12T12:03:59.282Z,5.90
2023-02-12T12:06:37.468Z,5.87
2023-02-12T12:09:13.275Z,6.30
2023-02-12T12:11:59.187Z,6.37
2023-02-12T12:14:31.331Z,6.03
2023-02-12T12:17:23.391Z,5.57
2023-02-12T12:19:59.139Z,5.57
2023-02-12T12:22:43.950Z,5.60
2023-02-12T12:25:21.671Z,5.93
2023-02-12T12:28:05.604Z,5.37
2023-02-12T12:30:42.337Z,5.80
2023-02-12T12:33:18.419Z,5.80
2023-02-12T12:35:55.553Z,5.80
2023-02-12T12:38:39.515Z,5.90
2023-02-12T12:41:17.375Z,5.85
2023-02-12T12:43:57.022Z,5.93
2023-02-12T12:46:41.093Z,5.63
2023-02-12T12:49:45.435Z,6.18
2023-02-12T12:52:33.189Z,6.25
2023-02-12T12:55:24.829Z,6.43
2023-02-12T12:58:02.571Z,6.00
2023-02-12T13:00:49.631Z,5.90
2023-02-12T13:03:54.665Z,6.05
2023-02-12T13:06:47.487Z,5.95
2023-02-12T13:09:39.628Z,6.97
2023-02-12T13:12:32.493Z,7.13
2023-02-12T13:15:08.308Z,6.57
2023-02-12T13:17:46.107Z,6.28
2023-02-12T13:20:21.258Z,7.15
2023-02-12T13:22:58.624Z,7.88
2023-02-12T13:25:32.217Z,7.82
2023-02-12T13:28:03.433Z,7.28
2023-02-12T13:30:34.887Z,7.55
2023-02-12T13:33:11.621Z,8.52
2023-02-12T13:35:44.454Z,9.03
2023-02-12T13:38:20.174Z,7.78
2023-02-12T13:40:49.948Z,8.33
2023-02-12T13:43:35.969Z,8.20
2023-02-12T13:46:10.291Z,7.80
2023-02-12T13:48:50.183Z,8.13
2023-02-12T13:51:29.486Z,8.15
2023-02-12T13:54:14.722Z,8.85
2023-02-12T13:56:44.753Z,7.95
2023-02-12T13:59:42.191Z,8.07
2023-02-12T14:02:44.933Z,8.00
2023-02-12T14:05:37.313Z,9.00
2023-02-12T14:08:08.051Z,9.05
2023-02-12T14:10:41.545Z,8.10
2023-02-12T14:13:34.192Z,9.82
2023-02-12T14:16:21.092Z,9.43
2023-02-12T14:18:49.307Z,9.27
2023-02-12T14:21:38.354Z,9.02
2023-02-12T14:24:52.193Z,8.97
2023-02-12T14:27:30.583Z,9.63
2023-02-12T14:30:04.540Z,9.37
2023-02-12T14:32:58.576Z,9.43
2023-02-12T14:35:34.222Z,10.47
2023-02-12T14:38:04.438Z,11.80
2023-02-12T14:40:44.403Z,10.60
2023-02-12T14:43:30.043Z,10.33
2023-02-12T14:46:00.559Z,9.93
2023-02-12T14:48:51.906Z,8.80
2023-02-12T14:51:24.273Z,10.00
2023-02-12T14:53:54.756Z,9.70
2023-02-12T14:56:24.654Z,10.23
2023-02-12T14:58:57.121Z,9.80
2023-02-12T15:01:34.051Z,9.57
2023-02-12T15:04:15.980Z,9.67
2023-02-12T15:06:52.643Z,10.43
2023-02-12T15:09:31.357Z,10.93
2023-02-12T15:12:08.800Z,11.33
2023-02-12T15:14:44.328Z,9.70
2023-02-12T15:17:19.766Z,10.30
2023-02-12T15:19:53.983Z,9.63
2023-02-12T15:22:25.876Z,9.97
2023-02-12T15:24:54.055Z,10.40
2023-02-12T15:27:22.922Z,13.93
2023-02-12T15:29:54.503Z,11.97
2023-02-12T15:32:26.399Z,10.80
2023-02-12T15:34:55.462Z,11.90
2023-02-12T15:37:26.678Z,12.40
2023-02-12T15:39:57.548Z,12.40
2023-02-12T15:42:28.947Z,13.50
2023-02-12T15:45:17.392Z,12.83
2023-02-12T15:47:46.928Z,70.10
2023-02-12T15:50:16.787Z,130.83
2023-02-12T15:52:47.640Z,52.93
2023-02-12T15:55:18.398Z,28.33
2023-02-12T15:57:51.156Z,19.77
2023-02-12T16:00:30.711Z,19.80
2023-02-12T16:02:58.821Z,18.77
2023-02-12T16:05:27.690Z,19.93
2023-02-12T16:07:56.545Z,19.80
2023-02-12T16:10:24.985Z,21.90
2023-02-12T16:12:53.847Z,17.23
2023-02-12T16:15:28.932Z,18.43
2023-02-12T16:17:58.502Z,18.97
2023-02-12T16:20:29.038Z,16.30
2023-02-12T16:22:57.769Z,16.07
2023-02-12T16:25:28.198Z,15.67
2023-02-12T16:28:00.327Z,15.23
2023-02-12T16:30:32.914Z,15.63
2023-02-12T16:33:09.386Z,16.00
2023-02-12T16:35:43.158Z,16.87
2023-02-12T16:38:40.370Z,17.10
2023-02-12T16:41:34.202Z,16.90
2023-02-12T16:44:26.044Z,18.60
2023-02-12T16:46:57.906Z,18.60
2023-02-12T16:49:27.306Z,18.90
2023-02-12T16:52:27.005Z,16.90
2023-02-12T16:54:55.123Z,18.23
2023-02-12T16:57:23.221Z,17.77
2023-02-12T16:59:51.336Z,16.70
2023-02-12T17:02:24.621Z,16.17
2023-02-12T17:05:01.030Z,15.60
2023-02-12T17:07:31.141Z,15.00
2023-02-12T17:09:59.327Z,15.23
2023-02-12T17:12:28.450Z,15.83
2023-02-12T17:14:56.959Z,13.73
2023-02-12T17:17:26.394Z,14.73
2023-02-12T17:19:54.558Z,15.17
2023-02-12T17:22:25.866Z,16.47
2023-02-12T17:24:54.831Z,16.90
2023-02-12T17:27:22.888Z,17.20
2023-02-12T17:29:51.122Z,17.50
2023-02-12T17:32:19.314Z,16.27
2023-02-12T17:34:49.420Z,15.07
2023-02-12T17:37:18.509Z,14.60
2023-02-12T17:39:46.632Z,14.47
2023-02-12T17:42:14.924Z,14.73
2023-02-12T17:44:42.948Z,15.70
2023-02-12T17:47:11.229Z,15.50
2023-02-12T17:49:40.030Z,14.83
2023-02-12T17:52:09.703Z,14.67
2023-02-12T17:54:37.953Z,15.70
2023-02-12T17:57:06.147Z,15.20
2023-02-12T17:59:34.197Z,15.07
2023-02-12T18:02:02.871Z,16.37
2023-02-12T18:04:34.051Z,16.03
2023-02-12T18:07:02.258Z,17.63
2023-02-12T18:09:32.026Z,19.03
2023-02-12T18:12:00.609Z,18.40
2023-02-12T18:14:28.737Z,18.63
2023-02-12T18:16:57.087Z,17.50
2023-02-12T18:19:26.728Z,15.93
2023-02-12T18:21:54.858Z,15.07
2023-02-12T18:24:22.934Z,14.90
2023-02-12T18:26:52.617Z,14.73
2023-02-12T18:29:20.810Z,14.37
2023-02-12T18:31:48.973Z,14.13
2023-02-12T18:34:17.449Z,14.40
2023-02-12T18:36:45.491Z,14.73
2023-02-12T18:39:13.582Z,15.43
2023-02-12T18:41:41.658Z,15.63
2023-02-12T18:44:11.158Z,14.50
2023-02-12T18:46:39.444Z,15.97
2023-02-12T18:49:07.499Z,15.63
2023-02-12T18:51:39.904Z,15.33
2023-02-12T18:54:10.171Z,15.83
2023-02-12T18:56:41.072Z,17.33
2023-02-12T18:59:13.359Z,20.10
2023-02-12T19:01:41.820Z,21.03
2023-02-12T19:04:13.910Z,25.27
2023-02-12T19:06:46.153Z,25.53
2023-02-12T19:09:16.752Z,26.73
2023-02-12T19:11:46.803Z,27.63
2023-02-12T19:14:18.121Z,26.80
2023-02-12T19:16:47.106Z,27.00
2023-02-12T19:19:16.863Z,30.60
2023-02-12T19:21:45.208Z,30.57
2023-02-12T19:24:15.339Z,30.87
2023-02-12T19:26:44.675Z,29.93
2023-02-12T19:29:13.511Z,29.33
2023-02-12T19:31:46.416Z,29.73
2023-02-12T19:34:22.107Z,30.70
2023-02-12T19:36:57.021Z,30.73
2023-02-12T19:39:26.690Z,32.63
2023-02-12T19:41:56.243Z,30.30
2023-02-12T19:44:25.990Z,31.10
2023-02-12T19:46:56.603Z,28.63
2023-02-12T19:49:27.005Z,25.43
2023-02-12T19:51:55.202Z,26.67
2023-02-12T19:54:25.254Z,28.57
2023-02-12T19:56:53.938Z,28.47
2023-02-12T19:59:24.551Z,29.70
2023-02-12T20:01:52.629Z,29.13
2023-02-12T20:04:24.413Z,29.23
2023-02-12T20:06:52.481Z,30.83
2023-02-12T20:09:21.538Z,30.13
2023-02-12T20:11:50.120Z,31.60
2023-02-12T20:14:20.930Z,31.67
2023-02-12T20:16:49.908Z,31.67
2023-02-12T20:19:21.104Z,32.93
2023-02-12T20:21:54.363Z,34.27
2023-02-12T20:24:22.851Z,31.73
2023-02-12T20:26:52.002Z,33.80
2023-02-12T20:29:20.591Z,33.77
2023-02-12T20:31:48.977Z,34.57
2023-02-12T20:34:19.436Z,35.77
2023-02-12T20:36:48.402Z,35.43
2023-02-12T20:39:19.600Z,35.60
2023-02-12T20:41:48.602Z,37.07
2023-02-12T20:44:20.004Z,36.40
2023-02-12T20:46:50.107Z,33.90
2023-02-12T20:49:20.994Z,35.60
2023-02-12T20:51:50.764Z,34.03
2023-02-12T20:54:20.227Z,33.20
2023-02-12T20:56:50.223Z,33.57
2023-02-12T20:59:18.518Z,35.00
2023-02-12T21:01:47.025Z,34.33
2023-02-12T21:04:34.984Z,35.80
2023-02-12T21:07:03.133Z,34.67
2023-02-12T21:09:32.658Z,34.27
2023-02-12T21:12:00.824Z,36.77
2023-02-12T21:14:28.860Z,35.73
2023-02-12T21:16:57.676Z,37.43
2023-02-12T21:19:27.006Z,37.60
2023-02-12T21:21:55.809Z,40.37
2023-02-12T21:24:26.007Z,37.93
2023-02-12T21:26:56.484Z,39.27
2023-02-12T21:29:26.703Z,40.73
2023-02-12T21:31:55.338Z,40.53
2023-02-12T21:34:24.664Z,42.63
2023-02-12T21:36:55.685Z,42.63
2023-02-12T21:39:27.239Z,42.20
2023-02-12T21:42:00.032Z,41.70
2023-02-12T21:44:28.882Z,41.63
2023-02-12T21:46:57.377Z,38.83
2023-02-12T21:49:27.855Z,40.13
2023-02-12T21:51:57.999Z,39.40
2023-02-12T21:54:26.207Z,41.37
2023-02-12T21:56:54.232Z,41.47
2023-02-12T21:59:24.876Z,40.57
2023-02-12T22:01:55.340Z,42.93
2023-02-12T22:04:23.631Z,41.83
2023-02-12T22:06:54.077Z,42.77
2023-02-12T22:09:23.914Z,45.80
2023-02-12T22:11:52.984Z,44.20
2023-02-12T22:14:23.476Z,42.53
2023-02-12T22:16:52.013Z,45.07
2023-02-12T22:19:20.260Z,45.03
2023-02-12T22:21:51.508Z,44.20
2023-02-12T22:24:19.976Z,46.33
2023-02-12T22:26:48.058Z,47.13
2023-02-12T22:29:17.328Z,46.60
2023-02-12T22:31:48.028Z,46.83
2023-02-12T22:34:18.761Z,46.80
2023-02-12T22:36:48.633Z,46.37
2023-02-12T22:39:17.672Z,47.97
2023-02-12T22:41:46.147Z,46.67
2023-02-12T22:44:15.483Z,48.07
2023-02-12T22:46:44.318Z,48.23
2023-02-12T22:49:14.201Z,47.93
2023-02-12T22:51:42.586Z,51.10
2023-02-12T22:54:14.829Z,49.53
2023-02-12T22:56:43.485Z,49.93
2023-02-12T22:59:12.856Z,53.10
2023-02-12T23:01:41.205Z,54.63
2023-02-12T23:04:13.712Z,56.43
2023-02-12T23:06:43.557Z,57.07
2023-02-12T23:09:15.066Z,57.27
2023-02-12T23:11:43.152Z,54.87
2023-02-12T23:14:11.240Z,55.63
2023-02-12T23:16:39.748Z,57.87
2023-02-12T23:19:07.918Z,62.63
2023-02-12T23:21:35.952Z,57.63
2023-02-12T23:24:05.598Z,60.20
2023-02-12T23:26:33.768Z,61.27
2023-02-12T23:29:01.838Z,61.17
2023-02-12T23:31:30.143Z,61.03
2023-02-12T23:33:58.204Z,58.20
2023-02-12T23:36:26.354Z,56.43
2023-02-12T23:38:54.412Z,55.43
2023-02-12T23:41:23.907Z,55.80
2023-02-12T23:43:52.038Z,55.20
2023-02-12T23:46:20.106Z,56.97
2023-02-12T23:48:48.175Z,60.20
2023-02-12T23:51:16.333Z,60.00
2023-02-12T23:53:44.397Z,63.50
2023-02-12T23:56:12.479Z,66.17
2023-02-12T23:58:42.051Z,66.47
